Time;durP1;ratioP1;P1;durP2;ratioP2;P2;SDS_P1;SDS_P2;PMS_P1;PMS_P2;Temp;Humidity;BMP_temperature;BMP_pressure;BME280_temperature;BME280_humidity;BME280_pressure;Samples;Min_cycle;Max_cycle;Signal;HPM_P1;HPM_P2
2021/07/08 00:02:01;;;;;;;5.83;4.27;;;;;;;20.23;84.29;98959.81;5006437;28;105227;-79
2021/07/08 00:04:32;;;;;;;4.13;3.25;;;;;;;20.26;85.07;98960.50;4991141;28;104734;-80
2021/07/08 00:07:00;;;;;;;3.60;3.30;;;;;;;20.29;84.60;98952.13;5004509;28;102889;-80
2021/07/08 00:09:28;;;;;;;7.63;4.20;;;;;;;19.67;87.13;98947.09;5004623;28;103135;-79
2021/07/08 00:11:59;;;;;;;7.45;4.20;;;;;;;19.17;91.22;98948.84;4989743;28;106477;-80
2021/07/08 00:14:28;;;;;;;5.20;3.73;;;;;;;19.18;92.26;98945.16;5004562;28;103650;-80
2021/07/08 00:16:56;;;;;;;2.40;2.20;;;;;;;19.74;89.07;98952.63;5004741;28;102665;-80
2021/07/08 00:19:24;;;;;;;3.87;2.87;;;;;;;19.77;88.64;98946.94;5004613;28;102710;-80
2021/07/08 00:21:52;;;;;;;2.92;2.70;;;;;;;19.90;87.84;98946.50;5004200;28;103621;-80
2021/07/08 00:24:20;;;;;;;3.83;2.72;;;;;;;18.97;91.79;98945.53;5004131;28;104739;-80
2021/07/08 00:26:48;;;;;;;2.53;2.30;;;;;;;19.05;93.97;98950.94;5004590;28;103244;-80
2021/07/08 00:29:16;;;;;;;3.72;2.90;;;;;;;19.42;90.75;98944.47;5005304;28;103270;-80
2021/07/08 00:31:45;;;;;;;4.57;2.65;;;;;;;19.10;92.48;98932.56;5004554;28;104068;-80
2021/07/08 00:34:13;;;;;;;6.43;2.70;;;;;;;18.69;94.32;98935.97;5004031;28;104662;-80
2021/07/08 00:36:41;;;;;;;3.47;2.42;;;;;;;18.46;96.58;98932.06;5004506;28;103420;-79
2021/07/08 00:51:50;;;;;;;3.03;2.00;;;;;;;19.42;89.65;98953.34;4822716;29;105487;-79
2021/07/08 00:54:19;;;;;;;3.00;1.70;;;;;;;19.48;90.26;98955.38;4813336;29;105757;-78
2021/07/08 00:56:46;;;;;;;3.95;1.75;;;;;;;19.14;91.01;98953.66;4837332;29;104731;-79
2021/07/08 00:59:14;;;;;;;5.18;2.28;;;;;;;18.26;96.64;98951.94;4830440;29;103087;-79
2021/07/08 01:01:43;;;;;;;5.40;2.05;;;;;;;17.91;100.00;98950.94;4831471;29;104471;-76
2021/07/08 01:04:12;;;;;;;6.30;1.90;;;;;;;18.15;99.98;98950.34;4822293;29;104226;-78
2021/07/08 01:06:44;;;;;;;1.75;1.45;;;;;;;18.28;99.26;98934.75;4834743;29;103807;-78
2021/07/08 01:09:13;;;;;;;4.05;2.47;;;;;;;17.79;100.00;98912.06;4830890;29;102957;-78
2021/07/08 01:11:42;;;;;;;5.45;2.88;;;;;;;17.73;100.00;98899.31;4816555;29;103200;-78
2021/07/08 01:14:10;;;;;;;5.05;2.53;;;;;;;17.73;100.00;98885.97;4839499;29;105735;-78
2021/07/08 01:16:38;;;;;;;9.80;3.10;;;;;;;17.42;100.00;98873.03;4830911;29;103808;-78
2021/07/08 01:19:06;;;;;;;4.35;2.47;;;;;;;17.32;100.00;98871.25;4830848;29;103167;-78
2021/07/08 01:21:36;;;;;;;5.40;2.72;;;;;;;17.31;100.00;98861.59;4831344;29;103032;-78
2021/07/08 01:24:07;;;;;;;4.18;2.55;;;;;;;17.35;100.00;98854.09;4831037;29;103840;-76
2021/07/08 01:26:39;;;;;;;3.30;2.60;;;;;;;17.35;100.00;98851.44;4818325;29;104465;-79
2021/07/08 01:29:08;;;;;;;6.47;2.60;;;;;;;17.35;100.00;98859.44;4827220;29;103126;-78
2021/07/08 01:31:36;;;;;;;2.30;2.03;;;;;;;17.47;100.00;98858.25;4831236;29;102891;-78
2021/07/08 01:34:04;;;;;;;4.77;2.50;;;;;;;17.78;100.00;98859.63;4813002;29;108060;-78
2021/07/08 01:36:32;;;;;;;4.68;2.40;;;;;;;17.73;100.00;98864.56;4830354;29;105028;-79
2021/07/08 01:39:02;;;;;;;4.15;2.20;;;;;;;17.73;100.00;98867.25;4831307;29;102947;-78
2021/07/08 01:41:30;;;;;;;4.50;2.30;;;;;;;17.66;100.00;98866.16;4830890;29;103069;-78
2021/07/08 01:44:00;;;;;;;3.08;1.88;;;;;;;17.75;100.00;98878.63;4830212;29;105596;-79
2021/07/08 01:46:28;;;;;;;3.95;2.13;;;;;;;17.78;100.00;98872.97;4830499;29;105792;-78
2021/07/08 01:49:02;;;;;;;2.53;1.45;;;;;;;17.94;100.00;98878.47;4834165;29;103077;-79
2021/07/08 01:51:32;;;;;;;1.40;1.30;;;;;;;18.12;100.00;98896.34;4812110;29;102966;-78
2021/07/08 01:54:05;;;;;;;1.90;1.80;;;;;;;18.17;100.00;98894.03;4825195;29;104296;-78
2021/07/08 01:56:33;;;;;;;1.67;1.45;;;;;;;18.20;100.00;98893.72;4835641;29;105097;-78
2021/07/08 01:59:01;;;;;;;1.42;1.33;;;;;;;18.27;99.53;98895.63;4830242;29;103211;-78
2021/07/08 02:01:29;;;;;;;1.27;1.15;;;;;;;18.34;98.86;98902.06;4830081;29;103409;-79
2021/07/08 02:03:57;;;;;;;1.52;1.20;;;;;;;18.39;98.47;98896.22;4837603;29;102950;-79
2021/07/08 02:07:51;;;;;;;5.88;2.30;;;;;;;18.15;100.00;98896.88;4828769;29;104205;-78
2021/07/08 02:10:38;;;;;;;1.52;1.25;;;;;;;18.21;100.00;98874.88;4826281;29;103578;-78
2021/07/08 02:13:07;;;;;;;2.00;1.67;;;;;;;18.23;100.00;98877.38;4826863;29;103050;-78
2021/07/08 02:15:35;;;;;;;3.47;1.70;;;;;;;18.30;99.29;98867.75;4830998;29;104468;-78
2021/07/08 02:18:03;;;;;;;5.20;2.33;;;;;;;18.11;100.00;98873.25;4829877;29;104413;-78
2021/07/08 02:20:32;;;;;;;4.20;2.42;;;;;;;17.88;100.00;98868.38;4829091;29;103097;-78
2021/07/08 02:23:00;;;;;;;2.60;2.40;;;;;;;17.96;100.00;98865.78;4831642;29;103196;-78
2021/07/08 02:25:28;;;;;;;2.20;2.03;;;;;;;18.11;100.00;98862.56;4830332;29;104144;-78
2021/07/08 02:27:58;;;;;;;1.90;1.65;;;;;;;18.14;100.00;98868.44;4830003;29;104495;-78
2021/07/08 02:30:28;;;;;;;1.50;1.40;;;;;;;18.20;100.00;98859.81;4830867;29;102564;-78
2021/07/08 02:32:57;;;;;;;2.92;1.80;;;;;;;18.25;99.56;98864.69;4813838;29;102840;-78
2021/07/08 02:35:27;;;;;;;2.80;1.90;;;;;;;18.04;100.00;98873.06;4829476;29;104766;-78
2021/07/08 02:37:56;;;;;;;1.92;1.45;;;;;;;18.08;100.00;98863.72;4830496;29;103236;-82
2021/07/08 02:40:27;;;;;;;2.15;1.48;;;;;;;18.17;100.00;98861.94;4830125;29;103021;-83
2021/07/08 02:42:56;;;;;;;4.03;2.10;;;;;;;18.25;100.00;98870.88;4830402;29;103653;-82
2021/07/08 02:45:27;;;;;;;3.00;2.10;;;;;;;18.31;100.00;98869.41;4832779;29;103938;-83
2021/07/08 02:47:57;;;;;;;2.25;1.83;;;;;;;18.35;100.00;98865.47;4830398;29;103528;-83
2021/07/08 02:50:27;;;;;;;5.43;2.60;;;;;;;18.28;100.00;98853.69;4828299;29;102925;-83
2021/07/08 02:52:55;;;;;;;4.07;2.40;;;;;;;17.95;100.00;98849.91;4834369;29;103323;-82
2021/07/08 02:55:24;;;;;;;5.53;2.80;;;;;;;17.74;100.00;98858.22;4808929;29;104920;-79
2021/07/08 02:57:53;;;;;;;3.45;2.60;;;;;;;17.74;100.00;98868.91;4854364;29;103686;-81
2021/07/08 03:00:24;;;;;;;2.72;2.10;;;;;;;17.96;100.00;98875.66;4844738;29;102621;-80
2021/07/08 03:02:52;;;;;;;2.97;1.50;;;;;;;18.08;100.00;98874.41;4837886;29;103175;-86
2021/07/08 03:05:21;;;;;;;2.90;1.95;;;;;;;18.17;100.00;98880.66;4831811;29;104875;-81
2021/07/08 03:07:50;;;;;;;1.45;1.35;;;;;;;18.25;100.00;98881.56;4827692;29;103854;-85
2021/07/08 03:10:21;;;;;;;2.25;1.83;;;;;;;18.28;100.00;98875.06;4831154;29;103017;-82
2021/07/08 03:12:50;;;;;;;4.47;2.22;;;;;;;17.94;100.00;98880.28;4827994;29;103102;-78
2021/07/08 03:15:19;;;;;;;2.72;1.92;;;;;;;17.99;100.00;98893.22;4825148;29;105006;-77
2021/07/08 03:17:49;;;;;;;1.70;1.40;;;;;;;18.10;100.00;98899.19;4826928;29;103719;-77
2021/07/08 03:20:20;;;;;;;2.35;1.90;;;;;;;18.20;100.00;98904.44;4810553;29;103348;-78
2021/07/08 03:22:49;;;;;;;1.55;1.30;;;;;;;18.26;100.00;98887.78;4818547;29;103363;-78
2021/07/08 03:25:19;;;;;;;8.25;2.25;;;;;;;17.98;100.00;98891.53;4829988;29;104975;-80
2021/07/08 03:27:48;;;;;;;7.10;3.13;;;;;;;17.74;100.00;98882.28;4830765;29;105570;-78
2021/07/08 03:30:19;;;;;;;6.30;2.38;;;;;;;17.79;100.00;98890.69;4830686;29;102624;-77
2021/07/08 03:32:50;;;;;;;2.15;1.95;;;;;;;17.91;100.00;98899.31;4810607;29;104520;-75
2021/07/08 03:35:23;;;;;;;2.63;2.33;;;;;;;17.88;100.00;98905.81;4822547;29;103519;-76
2021/07/08 03:37:51;;;;;;;2.35;1.95;;;;;;;17.95;100.00;98914.91;4825143;29;104376;-74
2021/07/08 03:40:20;;;;;;;3.13;1.88;;;;;;;18.04;100.00;98917.66;4824911;29;104082;-75
2021/07/08 03:42:50;;;;;;;2.22;2.03;;;;;;;18.04;100.00;98914.97;4827180;29;103423;-78
2021/07/08 03:45:20;;;;;;;2.75;1.80;;;;;;;18.10;100.00;98919.72;4837771;29;103768;-79
2021/07/08 03:47:50;;;;;;;1.92;1.58;;;;;;;18.16;100.00;98919.13;4836919;29;104208;-77
2021/07/08 03:50:18;;;;;;;1.80;1.65;;;;;;;18.18;100.00;98917.97;4812948;29;103490;-77
2021/07/08 03:52:46;;;;;;;7.13;2.65;;;;;;;18.06;100.00;98926.34;4829162;29;103367;-87
2021/07/08 03:55:18;;;;;;;4.13;2.38;;;;;;;17.82;100.00;98922.44;4834146;29;104184;-84
2021/07/08 03:57:53;;;;;;;4.82;2.95;;;;;;;17.79;100.00;98917.41;4829677;29;104725;-87
2021/07/08 04:00:25;;;;;;;2.85;2.05;;;;;;;17.77;100.00;98919.38;4836731;29;103074;-84
2021/07/08 04:02:55;;;;;;;2.53;2.30;;;;;;;17.79;100.00;98913.91;4831664;29;103138;-85
2021/07/08 04:05:23;;;;;;;3.58;2.35;;;;;;;17.81;100.00;98911.91;4825077;29;103330;-84
2021/07/08 04:07:51;;;;;;;2.72;2.17;;;;;;;17.73;100.00;98901.13;4840635;29;103833;-84
2021/07/08 04:10:19;;;;;;;3.53;1.80;;;;;;;17.82;100.00;98906.41;4839850;29;103095;-81
2021/07/08 04:12:47;;;;;;;1.73;1.63;;;;;;;17.95;100.00;98906.03;4831740;29;103135;-87
2021/07/08 04:15:17;;;;;;;2.40;2.15;;;;;;;17.95;100.00;98898.88;4825055;29;103228;-86
2021/07/08 04:17:46;;;;;;;3.33;2.50;;;;;;;17.61;100.00;98892.50;4800426;29;106325;-85
2021/07/08 04:20:18;;;;;;;6.97;2.70;;;;;;;17.59;100.00;98905.16;4826578;29;103240;-86
2021/07/08 04:22:46;;;;;;;6.95;3.08;;;;;;;17.50;100.00;98915.88;4829991;29;103127;-87
2021/07/08 04:25:15;;;;;;;6.60;2.88;;;;;;;17.40;100.00;98900.72;4826548;29;103804;-81
2021/07/08 04:27:44;;;;;;;13.65;3.35;;;;;;;17.25;100.00;98901.38;4827257;29;105302;-88
2021/07/08 04:30:15;;;;;;;4.65;3.58;;;;;;;17.09;100.00;98891.34;4828933;29;103204;-87
2021/07/08 04:32:43;;;;;;;8.15;4.15;;;;;;;17.08;100.00;98875.47;4813037;29;105779;-84
2021/07/08 04:35:17;;;;;;;4.45;3.50;;;;;;;17.10;100.00;98876.16;4829001;29;104082;-84
2021/07/08 04:37:46;;;;;;;4.43;2.40;;;;;;;17.36;100.00;98877.16;4808374;29;105369;-84
2021/07/08 04:40:16;;;;;;;3.55;3.13;;;;;;;17.54;100.00;98875.41;4829187;29;102701;-82
2021/07/08 04:42:45;;;;;;;3.05;2.10;;;;;;;17.73;100.00;98872.59;4829683;29;102787;-83
2021/07/08 04:45:14;;;;;;;1.67;1.58;;;;;;;17.88;100.00;98878.25;4829051;29;103857;-82
2021/07/08 04:47:44;;;;;;;1.95;1.45;;;;;;;18.03;100.00;98879.38;4832180;29;104802;-81
2021/07/08 04:50:15;;;;;;;8.07;2.70;;;;;;;18.10;100.00;98885.81;4826578;29;103330;-79
2021/07/08 04:52:44;;;;;;;6.53;3.70;;;;;;;18.12;100.00;98880.31;4828496;29;103346;-81
2021/07/08 04:55:15;;;;;;;2.38;1.83;;;;;;;18.25;100.00;98891.44;4846293;29;104164;-81
2021/07/08 04:57:45;;;;;;;6.38;3.17;;;;;;;18.28;100.00;98886.63;4835386;29;104020;-83
2021/07/08 05:00:15;;;;;;;3.78;2.63;;;;;;;18.30;100.00;98873.94;4828267;29;103031;-82
2021/07/08 05:02:44;;;;;;;6.47;3.03;;;;;;;18.01;100.00;98891.22;4826853;29;103332;-84
2021/07/08 05:05:14;;;;;;;6.57;3.05;;;;;;;17.87;100.00;98890.78;4828605;29;104887;-83
2021/07/08 05:07:42;;;;;;;6.32;3.83;;;;;;;17.55;100.00;98882.41;4829029;29;103588;-81
2021/07/08 05:10:12;;;;;;;5.65;3.47;;;;;;;17.61;100.00;98876.47;4838775;29;102965;-80
2021/07/08 05:12:43;;;;;;;4.57;3.35;;;;;;;17.73;100.00;98875.25;4817600;29;103260;-83
2021/07/08 05:15:14;;;;;;;4.97;3.08;;;;;;;17.84;100.00;98877.72;4809940;29;106404;-84
2021/07/08 05:17:42;;;;;;;3.83;3.47;;;;;;;17.88;100.00;98879.06;4833479;29;105589;-83
2021/07/08 05:20:11;;;;;;;7.15;3.40;;;;;;;17.95;100.00;98885.50;4831867;29;103118;-84
2021/07/08 05:22:40;;;;;;;3.58;2.60;;;;;;;18.12;100.00;98870.44;4828612;29;103173;-82
2021/07/08 05:25:11;;;;;;;6.53;3.63;;;;;;;18.11;100.00;98865.25;4828249;29;103972;-84
2021/07/08 05:27:39;;;;;;;5.88;4.00;;;;;;;17.98;100.00;98868.31;4839121;28;103232;-83
2021/07/08 05:30:11;;;;;;;3.33;2.50;;;;;;;18.24;100.00;98873.72;4844229;28;103129;-83
2021/07/08 05:32:39;;;;;;;3.78;2.75;;;;;;;18.29;100.00;98876.78;4845505;29;103076;-84
2021/07/08 05:35:08;;;;;;;2.72;2.53;;;;;;;18.40;100.00;98876.53;4835033;29;104014;-84
2021/07/08 05:37:37;;;;;;;3.05;2.65;;;;;;;18.41;100.00;98886.22;4835854;28;103579;-84
2021/07/08 05:40:07;;;;;;;2.40;2.30;;;;;;;18.58;100.00;98898.78;4856778;28;103051;-81
2021/07/08 05:42:37;;;;;;;4.28;3.15;;;;;;;18.63;100.00;98901.81;4861443;28;103102;-81
2021/07/08 05:45:06;;;;;;;5.43;3.97;;;;;;;18.63;100.00;98912.50;4848922;28;104114;-80
2021/07/08 05:47:36;;;;;;;2.95;2.67;;;;;;;18.69;100.00;98927.94;4848189;28;104409;-81
2021/07/08 05:50:05;;;;;;;5.63;3.72;;;;;;;18.64;100.00;98940.94;4847294;28;103130;-81
2021/07/08 05:52:33;;;;;;;5.57;3.00;;;;;;;18.70;100.00;98945.66;4847814;28;103060;-81
2021/07/08 05:55:01;;;;;;;4.68;4.25;;;;;;;18.73;100.00;98961.41;4852894;28;103957;-81
2021/07/08 05:57:29;;;;;;;8.15;4.53;;;;;;;18.73;100.00;98960.56;4859391;28;103654;-81
2021/07/08 05:59:57;;;;;;;4.53;3.78;;;;;;;18.80;100.00;98970.50;4861484;28;103197;-80
2021/07/08 06:02:25;;;;;;;3.53;3.05;;;;;;;18.88;99.91;98978.59;4848968;28;103590;-82
2021/07/08 06:04:55;;;;;;;4.13;3.42;;;;;;;18.95;99.11;98976.13;4848391;28;103993;-80
2021/07/08 06:07:24;;;;;;;2.83;2.63;;;;;;;19.02;98.77;98982.53;4842116;28;103658;-80
2021/07/08 06:09:55;;;;;;;2.50;2.30;;;;;;;19.05;98.63;99000.97;4831700;29;103109;-80
2021/07/08 06:12:23;;;;;;;5.32;3.25;;;;;;;19.10;98.38;99007.53;4846457;29;103065;-80
2021/07/08 06:14:51;;;;;;;2.72;2.53;;;;;;;19.16;98.59;99003.38;4847909;28;103960;-81
2021/07/08 06:17:19;;;;;;;3.15;2.85;;;;;;;19.20;98.29;99007.41;4848537;28;104872;-80
2021/07/08 06:19:47;;;;;;;4.10;2.45;;;;;;;19.25;98.95;99006.97;4835641;28;103127;-80
2021/07/08 06:22:17;;;;;;;2.08;1.90;;;;;;;19.32;98.85;98997.28;4849178;28;103030;-81
2021/07/08 06:24:45;;;;;;;2.05;1.90;;;;;;;19.43;98.45;99002.38;4830235;29;103944;-80
2021/07/08 06:31:14;;;;;;;2.72;2.28;;;;;;;19.44;96.43;98975.47;4827384;28;103270;-80
2021/07/08 06:33:43;;;;;;;2.10;1.98;;;;;;;19.48;96.12;98978.66;4853209;28;103069;-81
2021/07/08 06:36:12;;;;;;;3.78;2.63;;;;;;;19.57;95.94;98980.34;4846191;28;103633;-80
2021/07/08 06:38:41;;;;;;;2.80;2.10;;;;;;;19.61;95.55;98979.03;4856246;28;103684;-81
2021/07/08 06:41:10;;;;;;;2.30;2.10;;;;;;;19.53;95.95;98984.38;4856541;28;102956;-80
2021/07/08 06:43:38;;;;;;;3.03;1.83;;;;;;;19.63;96.28;98985.06;4843345;28;103236;-81
2021/07/08 06:46:07;;;;;;;3.65;2.60;;;;;;;19.55;94.59;98969.81;4846572;28;103263;-80
2021/07/08 06:48:35;;;;;;;3.13;2.50;;;;;;;19.45;95.36;98970.94;4828999;28;103478;-80
2021/07/08 06:51:04;;;;;;;2.30;2.10;;;;;;;19.54;95.72;98961.91;4845448;28;102949;-80
2021/07/08 06:53:32;;;;;;;3.80;3.03;;;;;;;19.48;96.35;98962.59;4846423;28;103025;-80
2021/07/08 06:56:01;;;;;;;7.43;3.25;;;;;;;19.19;98.14;98965.56;4858501;28;103934;-80
2021/07/08 06:58:29;;;;;;;2.30;2.10;;;;;;;19.40;97.84;98966.03;4836941;28;106763;-80
2021/07/08 07:00:57;;;;;;;4.07;2.60;;;;;;;19.51;96.20;98967.59;4858617;28;103101;-80
2021/07/08 07:03:26;;;;;;;5.85;3.47;;;;;;;19.53;95.70;98970.97;4850490;28;103110;-80
2021/07/08 07:05:55;;;;;;;2.88;2.22;;;;;;;19.56;95.80;98982.19;4850350;28;104211;-80
2021/07/08 07:08:23;;;;;;;5.18;3.33;;;;;;;19.61;96.56;98981.72;4855592;28;105107;-80
2021/07/08 07:10:51;;;;;;;4.57;2.85;;;;;;;19.63;95.90;98985.06;4864742;28;103042;-80
2021/07/08 07:13:20;;;;;;;2.97;2.58;;;;;;;19.71;94.81;98990.47;4851406;28;102669;-81
2021/07/08 07:15:48;;;;;;;3.60;2.17;;;;;;;19.82;94.89;98992.84;4851038;28;103873;-80
2021/07/08 07:18:17;;;;;;;5.78;3.80;;;;;;;19.70;93.82;98987.97;4851197;28;103384;-80
2021/07/08 07:20:45;;;;;;;2.88;2.60;;;;;;;19.68;94.96;98985.44;4849949;28;103339;-80
2021/07/08 07:23:14;;;;;;;3.92;3.63;;;;;;;19.59;96.07;98987.22;4836659;29;103096;-80
2021/07/08 07:25:42;;;;;;;4.13;3.72;;;;;;;19.77;94.09;98989.81;4833906;28;104412;-81
2021/07/08 07:28:11;;;;;;;4.45;4.05;;;;;;;19.42;96.13;98974.78;4850020;28;103785;-81
2021/07/08 07:30:42;;;;;;;4.10;2.97;;;;;;;19.85;95.65;98970.25;4841149;28;105141;-83
2021/07/08 07:33:10;;;;;;;4.05;3.30;;;;;;;20.10;94.54;98964.78;4851201;28;103436;-81
2021/07/08 07:35:38;;;;;;;3.88;3.15;;;;;;;20.13;94.02;98956.41;4850718;28;103974;-80
2021/07/08 07:38:11;;;;;;;7.28;4.03;;;;;;;20.16;93.59;98953.41;4844316;28;104351;-79
2021/07/08 07:40:40;;;;;;;5.80;3.03;;;;;;;20.20;95.01;98965.50;4856724;28;102888;-77
2021/07/08 07:43:08;;;;;;;4.45;3.63;;;;;;;20.28;94.26;98967.38;4849951;28;103111;-77
2021/07/08 07:45:36;;;;;;;4.07;3.13;;;;;;;20.31;95.06;98966.19;4848825;28;105341;-77
2021/07/08 07:48:06;;;;;;;5.13;4.20;;;;;;;20.43;93.58;98964.88;4849311;28;104222;-77
2021/07/08 07:50:35;;;;;;;3.03;2.75;;;;;;;20.36;93.38;98963.84;4851790;28;102744;-76
2021/07/08 07:53:04;;;;;;;3.63;3.13;;;;;;;20.53;92.99;98970.91;4849523;28;102653;-77
2021/07/08 07:55:33;;;;;;;4.93;4.10;;;;;;;20.59;91.04;98965.72;4855591;28;105111;-77
2021/07/08 07:58:02;;;;;;;5.68;4.78;;;;;;;19.81;93.82;98963.53;4837871;28;105622;-77
2021/07/08 08:00:31;;;;;;;5.28;4.00;;;;;;;20.24;94.09;98965.97;4860494;28;102925;-76
2021/07/08 08:03:00;;;;;;;5.82;4.80;;;;;;;20.54;91.48;98972.59;4850531;28;103167;-77
2021/07/08 08:05:54;;;;;;;4.03;3.53;;;;;;;20.84;91.56;98971.91;4849064;28;103752;-77
2021/07/08 08:08:27;;;;;;;5.88;4.50;;;;;;;20.91;88.61;98970.25;4849331;28;105299;-77
2021/07/08 08:10:57;;;;;;;5.50;4.45;;;;;;;20.90;89.83;98967.72;4848368;28;102931;-77
2021/07/08 08:13:26;;;;;;;4.35;3.00;;;;;;;21.10;90.45;98969.91;4831476;29;104872;-77
2021/07/08 08:15:55;;;;;;;4.70;3.67;;;;;;;21.06;89.31;98973.06;4849571;28;103794;-76
2021/07/08 08:18:25;;;;;;;7.82;4.93;;;;;;;20.66;89.13;98968.59;4850090;28;103731;-77
2021/07/08 08:20:55;;;;;;;3.00;2.70;;;;;;;20.65;91.39;98969.59;4849658;28;102728;-77
2021/07/08 08:23:23;;;;;;;4.15;2.55;;;;;;;20.95;91.68;98966.19;4849802;28;103099;-76
2021/07/08 08:25:51;;;;;;;7.05;4.50;;;;;;;20.95;91.17;98976.94;4849372;28;103414;-77
2021/07/08 08:28:19;;;;;;;5.07;4.57;;;;;;;21.33;90.52;98981.59;4855954;28;103662;-77
2021/07/08 08:30:48;;;;;;;6.07;3.65;;;;;;;21.54;89.97;98981.03;4832129;29;103259;-77
2021/07/08 08:33:16;;;;;;;7.80;4.93;;;;;;;21.64;89.08;98973.59;4838347;29;102951;-77
2021/07/08 08:35:44;;;;;;;5.97;4.72;;;;;;;21.62;88.82;98975.63;4847544;28;103374;-76
2021/07/08 08:38:14;;;;;;;3.42;3.22;;;;;;;22.15;87.35;98976.72;4859584;28;105158;-77
2021/07/08 08:40:42;;;;;;;6.32;4.38;;;;;;;22.34;85.58;98979.78;4856292;28;102901;-77
2021/07/08 08:43:10;;;;;;;6.30;4.70;;;;;;;22.35;84.56;98977.94;4848898;28;103791;-77
2021/07/08 08:45:38;;;;;;;6.05;5.45;;;;;;;22.56;82.16;98985.38;4848299;29;104943;-77
2021/07/08 08:48:09;;;;;;;4.57;3.40;;;;;;;22.72;83.02;98977.19;4857984;28;105065;-76
2021/07/08 08:50:39;;;;;;;5.43;4.43;;;;;;;22.99;81.04;98984.69;4848620;28;103538;-77
2021/07/08 08:53:09;;;;;;;3.95;3.60;;;;;;;22.95;80.83;98989.63;4847388;28;103085;-77
2021/07/08 08:55:39;;;;;;;4.22;3.83;;;;;;;23.13;80.89;98986.56;4839758;28;103257;-76
2021/07/08 08:58:09;;;;;;;4.30;3.40;;;;;;;23.24;81.68;98978.06;4854606;28;104265;-77
2021/07/08 09:00:46;;;;;;;5.13;4.45;;;;;;;23.13;79.31;98978.50;4834796;28;102951;-77
2021/07/08 09:03:17;;;;;;;4.85;4.30;;;;;;;23.04;79.05;98974.22;4843547;28;103386;-74
2021/07/08 09:05:48;;;;;;;5.57;4.97;;;;;;;23.01;77.64;98970.06;4847599;28;104917;-75
2021/07/08 09:08:20;;;;;;;5.13;4.63;;;;;;;22.17;78.53;98980.94;4860954;28;104525;-76
2021/07/08 09:10:52;;;;;;;5.50;4.55;;;;;;;21.94;83.30;98982.75;4831783;29;104427;-76
2021/07/08 09:13:20;;;;;;;5.90;5.40;;;;;;;22.46;80.75;98994.53;4847984;28;103046;-75
2021/07/08 09:15:48;;;;;;;4.97;3.90;;;;;;;22.48;82.47;98995.19;4842742;28;104974;-75
2021/07/08 09:18:16;;;;;;;6.20;3.78;;;;;;;22.15;81.99;99009.84;4848036;28;104000;-76
2021/07/08 09:20:44;;;;;;;5.28;3.50;;;;;;;22.27;82.49;99021.91;4852889;28;102895;-75
2021/07/08 09:23:15;;;;;;;5.90;4.97;;;;;;;22.22;82.16;99023.44;4848562;28;102703;-75
2021/07/08 09:25:45;;;;;;;5.13;4.38;;;;;;;22.42;82.26;99028.22;4847253;28;105250;-75
2021/07/08 09:28:21;;;;;;;3.72;3.30;;;;;;;22.61;81.64;99026.06;4848082;28;103712;-76
2021/07/08 09:31:01;;;;;;;3.00;2.70;;;;;;;22.72;80.51;99031.06;4846854;28;102770;-75
2021/07/08 09:33:35;;;;;;;12.43;5.35;;;;;;;22.25;80.42;99029.31;4855211;28;103307;-75
2021/07/08 09:36:12;;;;;;;4.70;3.15;;;;;;;22.60;80.32;99027.91;4849768;28;104111;-75
2021/07/08 09:38:51;;;;;;;7.88;3.67;;;;;;;22.59;80.51;99028.09;4825938;28;104897;-75
2021/07/08 09:41:22;;;;;;;6.00;3.75;;;;;;;22.39;82.47;99020.50;4856999;28;102918;-75
2021/07/08 09:43:51;;;;;;;6.38;4.78;;;;;;;22.00;82.37;99011.63;4858157;28;103326;-75
2021/07/08 09:46:34;;;;;;;4.00;3.70;;;;;;;22.51;81.21;99000.19;4832604;28;105441;-75
2021/07/08 09:49:05;;;;;;;4.97;4.40;;;;;;;22.07;83.12;98991.06;4837316;28;104234;-75
2021/07/08 09:51:34;;;;;;;2.92;2.60;;;;;;;22.55;82.52;99006.06;4854816;28;103415;-75
2021/07/08 09:54:09;;;;;;;6.00;4.55;;;;;;;22.00;82.21;98995.50;4848105;28;103091;-75
2021/07/08 09:56:48;;;;;;;5.55;4.18;;;;;;;21.73;84.82;98987.84;4860549;28;105039;-75
2021/07/08 09:59:20;;;;;;;9.73;4.55;;;;;;;22.00;83.39;98984.75;4856861;28;103514;-77
2021/07/08 10:01:56;;;;;;;3.03;2.72;;;;;;;22.28;81.88;98994.00;4836428;28;103316;-78
2021/07/08 10:04:25;;;;;;;4.95;3.58;;;;;;;22.64;80.90;99004.19;4853677;28;103956;-78
2021/07/08 10:06:55;;;;;;;4.03;3.70;;;;;;;22.71;78.98;99008.66;4841646;28;104547;-81
2021/07/08 10:09:24;;;;;;;6.50;4.10;;;;;;;22.71;79.87;99005.97;4842278;28;104955;-79
2021/07/08 10:11:54;;;;;;;7.80;4.63;;;;;;;22.76;80.88;99002.75;4842157;28;104028;-79
2021/07/08 10:14:25;;;;;;;5.53;4.10;;;;;;;22.95;78.34;98997.72;4844000;28;103289;-79
2021/07/08 10:16:55;;;;;;;5.10;3.70;;;;;;;22.91;78.80;98990.16;4841623;28;105027;-80
2021/07/08 10:19:25;;;;;;;6.07;4.35;;;;;;;22.86;79.31;98982.63;4842684;28;103985;-79
2021/07/08 10:21:54;;;;;;;6.65;5.10;;;;;;;22.29;77.97;98981.34;4843278;28;103225;-80
2021/07/08 10:24:22;;;;;;;5.07;4.13;;;;;;;23.02;78.43;98977.09;4824596;29;103394;-80
2021/07/08 10:26:50;;;;;;;3.75;3.13;;;;;;;23.47;78.12;98975.28;4824175;29;104046;-77
2021/07/08 10:29:19;;;;;;;4.20;3.80;;;;;;;23.17;78.39;98969.03;4842682;28;104407;-77
2021/07/08 10:31:51;;;;;;;4.55;4.15;;;;;;;23.16;78.51;98967.34;4820380;28;103245;-75
2021/07/08 10:34:21;;;;;;;5.63;4.57;;;;;;;23.02;77.05;98970.84;4829274;29;103346;-77
2021/07/08 10:36:51;;;;;;;6.10;5.50;;;;;;;22.83;78.33;98963.28;4845511;28;106538;-77
2021/07/08 10:39:20;;;;;;;7.22;4.60;;;;;;;23.31;75.79;98954.72;4858001;28;104040;-77
2021/07/08 10:41:55;;;;;;;3.63;2.92;;;;;;;23.95;75.89;98950.41;4835762;28;103168;-77
2021/07/08 10:44:43;;;;;;;5.63;4.65;;;;;;;22.60;75.71;98949.00;4853215;28;103110;-75
2021/07/08 10:47:46;;;;;;;3.63;3.08;;;;;;;23.42;75.13;98945.38;4838296;28;103813;-77
2021/07/08 10:50:38;;;;;;;6.53;3.78;;;;;;;23.59;74.47;98957.63;4848163;28;103858;-76
2021/07/08 10:53:18;;;;;;;4.35;3.88;;;;;;;23.52;74.62;98968.31;4852380;28;103237;-75
2021/07/08 10:55:48;;;;;;;3.35;3.05;;;;;;;23.89;74.33;98980.84;4850293;28;103222;-79
2021/07/08 10:58:51;;;;;;;3.97;2.88;;;;;;;23.98;72.74;98981.56;4849674;28;104285;-80
2021/07/08 11:01:44;;;;;;;4.07;2.90;;;;;;;24.20;71.17;98988.72;4775064;29;105717;-78
2021/07/08 11:04:15;;;;;;;3.53;3.22;;;;;;;23.93;71.72;98994.81;4772932;29;103325;-79
2021/07/08 11:06:46;;;;;;;5.07;3.50;;;;;;;23.57;72.09;98998.28;4810515;28;104202;-80
2021/07/08 11:09:23;;;;;;;4.13;3.00;;;;;;;23.53;73.75;99001.53;4818846;29;104187;-79
2021/07/08 11:12:27;;;;;;;3.47;2.58;;;;;;;23.35;75.49;99009.13;4832719;29;103805;-78
2021/07/08 11:14:55;;;;;;;5.57;2.95;;;;;;;23.06;75.42;99007.22;4812914;29;103471;-77
2021/07/08 11:17:23;;;;;;;3.15;2.60;;;;;;;22.92;75.22;98997.22;4834070;29;102951;-80
2021/07/08 11:19:54;;;;;;;7.00;3.03;;;;;;;22.77;75.43;99004.41;4830209;29;106010;-79
2021/07/08 11:22:36;;;;;;;2.97;2.40;;;;;;;22.95;74.76;98994.19;4834624;29;104253;-76
2021/07/08 11:25:08;;;;;;;5.15;2.78;;;;;;;22.65;74.93;98990.56;4830702;29;103909;-76
2021/07/08 11:27:39;;;;;;;2.97;2.78;;;;;;;23.04;74.32;98987.69;4830273;28;103800;-77
2021/07/08 11:30:40;;;;;;;2.20;2.00;;;;;;;23.04;75.88;98990.41;4857315;28;104255;-78
2021/07/08 11:33:20;;;;;;;4.22;2.38;;;;;;;22.27;81.92;98986.94;4856520;28;103682;-79
2021/07/08 11:35:55;;;;;;;6.75;2.92;;;;;;;22.22;80.26;98989.31;4834968;28;103153;-78
2021/07/08 11:38:27;;;;;;;3.60;3.28;;;;;;;21.85;80.64;98983.75;4835507;28;103254;-78
2021/07/08 11:40:55;;;;;;;2.13;1.92;;;;;;;22.17;80.41;98993.56;4851018;28;103869;-78
2021/07/08 11:43:27;;;;;;;6.75;2.28;;;;;;;21.69;82.58;98997.28;4849282;28;103402;-78
2021/07/08 11:45:57;;;;;;;4.07;1.40;;;;;;;21.47;83.65;99004.25;4850134;28;103071;-78
2021/07/08 11:48:29;;;;;;;1.70;1.40;;;;;;;21.19;85.04;98994.91;4847414;28;103391;-79
2021/07/08 11:50:57;;;;;;;2.50;1.45;;;;;;;20.76;86.51;98988.03;4855550;28;105813;-77
2021/07/08 11:53:28;;;;;;;1.83;1.10;;;;;;;20.60;86.07;98983.50;4845227;28;103833;-74
2021/07/08 11:55:57;;;;;;;1.48;1.25;;;;;;;20.61;86.61;98981.66;4854419;28;103262;-75